Misen Maru — JD3893 — position and weather

sailwx.info

Track history (hours):
 
Tides and Currents Weather Stations Pressure Air Temp Water Temp Dewpoint Dewpoint Depression Visibility Wind Speed Wind Dir Waves Ship Positions

Misen Maru

Last reported at 2018-Jun-21 19:17 UTC. Time now 2018-Jun-21 19:53 UTC.
Position N 33°57' E 134°53'.

Length 82 m; draft 3.5 m.

Type: Cargo ship. MMSI: 431006889.

Date/timePositionNaut miles runAvg speedWind from/ knotsBaromVisibWave heightAir tempDewpointWater temp
2018-Jun-21 19:17N 33°57' E 134°53'512.6
2018-Jun-21 18:52N 34°02' E 134°54'412.2
2018-Jun-21 18:30N 34°06' E 134°55'612.4
2018-Jun-21 18:01N 34°12' E 134°57'611.4
2018-Jun-21 17:31N 34°18' E 134°59'611.9
2018-Jun-21 17:00N 34°23' E 135°00'612.3
2018-Jun-21 16:31N 34°29' E 135°02'611.7
2018-Jun-21 16:00N 34°35' E 135°04'910.6
2018-Jun-21 15:06N 34°35' E 134°52'112.9
2018-Jun-21 15:00N 34°34' E 134°51'713.0
2018-Jun-21 14:27N 34°31' E 134°43'613.0
2018-Jun-21 14:00N 34°29' E 134°37'2012.7
2018-Jun-21 12:25N 34°24' E 134°13'  
2018-Jun-13 11:57N 34°21' E 134°24'2012.0
2018-Jun-13 10:19N 34°10' E 134°44'3 8.0
2018-Jun-13 09:55N 34°07' E 134°46'1312.5
2018-Jun-13 08:53N 33°57' E 134°56'512.2
2018-Jun-13 08:28N 33°53' E 134°59'24910.2
2018-Jun-12 08:06N 35°12' E 139°46'112.2
2018-Jun-12 08:00N 35°13' E 139°46'611.3
2018-Jun-12 07:30N 35°18' E 139°44'5 9.6
2018-Jun-12 07:00N 35°23' E 139°45'1 1.3
2018-Jun-12 06:30N 35°23' E 139°45'0 0.0
2018-Jun-12 06:00N 35°23' E 139°45'0 0.0
2018-Jun-12 05:30N 35°23' E 139°45'0 0.0
2018-Jun-12 04:53N 35°23' E 139°45'0 0.0
2018-Jun-12 04:30N 35°23' E 139°45'0 0.0
2018-Jun-12 03:54N 35°23' E 139°45'0 0.0
2018-Jun-12 03:26N 35°23' E 139°45'0 0.1
2018-Jun-12 03:00N 35°23' E 139°45'0 0.0
2018-Jun-12 02:30N 35°23' E 139°45'0 0.0
2018-Jun-12 01:59N 35°23' E 139°45'0 0.0
2018-Jun-12 01:29N 35°23' E 139°45'0 0.0
2018-Jun-12 01:00N 35°23' E 139°45'0 0.0
2018-Jun-12 00:29N 35°23' E 139°45'0 0.0
2018-Jun-12 00:00N 35°23' E 139°45'0 0.0
2018-Jun-11 23:29N 35°23' E 139°45'0 0.0
2018-Jun-11 23:00N 35°23' E 139°45'0 0.0
2018-Jun-11 22:29N 35°23' E 139°45'0 0.0
2018-Jun-11 22:00N 35°23' E 139°45'0 0.0
2018-Jun-11 21:29N 35°23' E 139°45'0 0.0
2018-Jun-11 21:00N 35°23' E 139°45'0 0.0
2018-Jun-11 20:29N 35°23' E 139°45'0 0.0
2018-Jun-11 19:57N 35°23' E 139°45'0 0.0
2018-Jun-11 19:29N 35°23' E 139°45'  
Track history (hours):
 
Tides and Currents Weather Stations Pressure Air Temp Water Temp Dewpoint Dewpoint Depression Visibility Wind Speed Wind Dir Waves Ship Positions

Misen Maru

Last reported at 2018-Jun-21 19:17 UTC. Time now 2018-Jun-21 19:53 UTC.
Position N 33°57' E 134°53'.

Length 82 m; draft 3.5 m.

Type: Cargo ship. MMSI: 431006889.

Date/timePositionNaut miles runAvg speedWind from/ knotsBaromVisibWave heightAir tempDewpointWater temp
2018-Jun-21 19:17N 33°57' E 134°53'512.6
2018-Jun-21 18:52N 34°02' E 134°54'412.2
2018-Jun-21 18:30N 34°06' E 134°55'612.4
2018-Jun-21 18:01N 34°12' E 134°57'611.4
2018-Jun-21 17:31N 34°18' E 134°59'611.9
2018-Jun-21 17:00N 34°23' E 135°00'612.3
2018-Jun-21 16:31N 34°29' E 135°02'611.7
2018-Jun-21 16:00N 34°35' E 135°04'910.6
2018-Jun-21 15:06N 34°35' E 134°52'112.9
2018-Jun-21 15:00N 34°34' E 134°51'713.0
2018-Jun-21 14:27N 34°31' E 134°43'613.0
2018-Jun-21 14:00N 34°29' E 134°37'2012.7
2018-Jun-21 12:25N 34°24' E 134°13'  
2018-Jun-13 11:57N 34°21' E 134°24'2012.0
2018-Jun-13 10:19N 34°10' E 134°44'3 8.0
2018-Jun-13 09:55N 34°07' E 134°46'1312.5
2018-Jun-13 08:53N 33°57' E 134°56'512.2
2018-Jun-13 08:28N 33°53' E 134°59'24910.2
2018-Jun-12 08:06N 35°12' E 139°46'112.2
2018-Jun-12 08:00N 35°13' E 139°46'611.3
2018-Jun-12 07:30N 35°18' E 139°44'5 9.6
2018-Jun-12 07:00N 35°23' E 139°45'1 1.3
2018-Jun-12 06:30N 35°23' E 139°45'0 0.0
2018-Jun-12 06:00N 35°23' E 139°45'0 0.0
2018-Jun-12 05:30N 35°23' E 139°45'0 0.0
2018-Jun-12 04:53N 35°23' E 139°45'0 0.0
2018-Jun-12 04:30N 35°23' E 139°45'0 0.0
2018-Jun-12 03:54N 35°23' E 139°45'0 0.0
2018-Jun-12 03:26N 35°23' E 139°45'0 0.1
2018-Jun-12 03:00N 35°23' E 139°45'0 0.0
2018-Jun-12 02:30N 35°23' E 139°45'0 0.0
2018-Jun-12 01:59N 35°23' E 139°45'0 0.0
2018-Jun-12 01:29N 35°23' E 139°45'0 0.0
2018-Jun-12 01:00N 35°23' E 139°45'0 0.0
2018-Jun-12 00:29N 35°23' E 139°45'0 0.0
2018-Jun-12 00:00N 35°23' E 139°45'0 0.0
2018-Jun-11 23:29N 35°23' E 139°45'0 0.0
2018-Jun-11 23:00N 35°23' E 139°45'0 0.0
2018-Jun-11 22:29N 35°23' E 139°45'0 0.0
2018-Jun-11 22:00N 35°23' E 139°45'0 0.0
2018-Jun-11 21:29N 35°23' E 139°45'0 0.0
2018-Jun-11 21:00N 35°23' E 139°45'0 0.0
2018-Jun-11 20:29N 35°23' E 139°45'0 0.0
2018-Jun-11 19:57N 35°23' E 139°45'0 0.0
2018-Jun-11 19:29N 35°23' E 139°45'  

Dump ship's entire track history